createdAt,value
2024-05-09T00:00:36.279Z,35.87
2024-05-09T00:03:10.586Z,34.03
2024-05-09T00:05:40.101Z,35.23
2024-05-09T00:08:07.119Z,35.13
2024-05-09T00:10:37.451Z,34.27
2024-05-09T00:13:09.250Z,35.03
2024-05-09T00:15:36.856Z,34.43
2024-05-09T00:18:04.552Z,35.17
2024-05-09T00:20:37.991Z,36.30
2024-05-09T00:23:08.691Z,35.43
2024-05-09T00:25:35.752Z,37.40
2024-05-09T00:28:02.696Z,36.47
2024-05-09T00:30:34.387Z,36.03
2024-05-09T00:33:04.546Z,36.43
2024-05-09T00:35:32.009Z,35.43
2024-05-09T00:37:58.644Z,37.80
2024-05-09T00:40:35.302Z,37.67
2024-05-09T00:43:06.348Z,37.77
2024-05-09T00:45:34.319Z,39.10
2024-05-09T00:48:03.192Z,37.70
2024-05-09T00:50:35.980Z,37.90
2024-05-09T00:53:05.218Z,39.20
2024-05-09T00:55:32.037Z,38.77
2024-05-09T00:57:58.578Z,38.60
2024-05-09T01:00:31.687Z,39.50
2024-05-09T01:03:05.630Z,38.40
2024-05-09T01:05:32.670Z,39.23
2024-05-09T01:07:59.306Z,38.93
2024-05-09T01:10:33.536Z,40.03
2024-05-09T01:13:02.883Z,40.80
2024-05-09T01:15:29.421Z,37.87
2024-05-09T01:17:56.863Z,38.83
2024-05-09T01:20:32.223Z,41.63
2024-05-09T01:23:07.509Z,40.53
2024-05-09T01:25:35.304Z,47.43
2024-05-09T01:28:01.925Z,44.13
2024-05-09T01:30:34.393Z,41.73
2024-05-09T01:33:04.019Z,41.83
2024-05-09T01:35:30.884Z,42.47
2024-05-09T01:37:57.527Z,40.37
2024-05-09T01:40:33.484Z,41.97
2024-05-09T01:43:04.688Z,43.17
2024-05-09T01:45:31.375Z,42.87
2024-05-09T01:47:58.304Z,42.50
2024-05-09T01:50:36.238Z,42.07
2024-05-09T01:53:06.563Z,40.37
2024-05-09T01:55:33.133Z,42.20
2024-05-09T01:57:59.622Z,40.70
2024-05-09T02:00:36.141Z,41.00
2024-05-09T02:03:11.536Z,40.73
2024-05-09T02:05:41.007Z,42.03
2024-05-09T02:08:12.888Z,42.23
2024-05-09T02:10:39.451Z,40.67
2024-05-09T02:13:07.676Z,42.17
2024-05-09T02:15:34.183Z,41.97
2024-05-09T02:18:00.945Z,42.73
2024-05-09T02:20:35.186Z,41.97
2024-05-09T02:23:05.007Z,40.80
2024-05-09T02:25:32.512Z,40.97
2024-05-09T02:27:59.372Z,41.00
2024-05-09T02:30:36.164Z,39.73
2024-05-09T02:33:07.531Z,40.77
2024-05-09T02:35:34.627Z,38.73
2024-05-09T02:38:01.409Z,40.77
2024-05-09T02:40:35.918Z,40.77
2024-05-09T02:43:05.782Z,41.80
2024-05-09T02:45:33.034Z,39.20
2024-05-09T02:47:59.912Z,39.77
2024-05-09T02:50:34.366Z,40.53
2024-05-09T02:53:05.695Z,40.93
2024-05-09T02:55:32.668Z,40.33
2024-05-09T02:57:59.463Z,40.27
2024-05-09T03:00:34.669Z,38.47
2024-05-09T03:03:07.617Z,39.40
2024-05-09T03:05:35.458Z,40.03
2024-05-09T03:08:02.178Z,39.10
2024-05-09T03:10:32.641Z,38.80
2024-05-09T03:13:09.257Z,38.07
2024-05-09T03:15:36.213Z,38.53
2024-05-09T03:18:03.593Z,37.77
2024-05-09T03:20:34.377Z,38.50
2024-05-09T03:23:03.287Z,37.87
2024-05-09T03:25:30.067Z,38.63
2024-05-09T03:27:56.681Z,37.40
2024-05-09T03:30:35.831Z,38.23
2024-05-09T03:33:13.962Z,38.53
2024-05-09T03:35:41.739Z,39.47
2024-05-09T03:38:08.436Z,37.67
2024-05-09T03:40:35.153Z,38.67
2024-05-09T03:43:01.759Z,38.13
2024-05-09T03:45:28.270Z,37.30
2024-05-09T03:47:55.098Z,36.60
2024-05-09T03:50:29.907Z,38.17
2024-05-09T03:53:01.990Z,37.47
2024-05-09T03:55:28.720Z,35.97
2024-05-09T03:57:55.319Z,37.30
2024-05-09T04:00:30.894Z,36.50
2024-05-09T04:03:04.135Z,37.53
2024-05-09T04:05:31.199Z,38.27
2024-05-09T04:07:58.315Z,37.77
2024-05-09T04:10:32.374Z,36.23
2024-05-09T04:13:00.632Z,34.70
2024-05-09T04:15:27.210Z,37.33
2024-05-09T04:17:54.041Z,36.63
2024-05-09T04:20:32.817Z,37.20
2024-05-09T04:23:06.012Z,36.43
2024-05-09T04:25:32.739Z,36.13
2024-05-09T04:27:59.366Z,36.13
2024-05-09T04:30:34.785Z,36.10
2024-05-09T04:33:06.079Z,36.17
2024-05-09T04:35:33.156Z,35.23
2024-05-09T04:38:00.506Z,35.17
2024-05-09T04:40:33.152Z,34.17
2024-05-09T04:43:03.602Z,35.37
2024-05-09T04:45:30.322Z,36.63
2024-05-09T04:47:57.053Z,35.40
2024-05-09T04:50:32.741Z,35.53
2024-05-09T04:53:03.751Z,35.93
2024-05-09T04:55:30.505Z,35.97
2024-05-09T04:57:57.127Z,35.43
2024-05-09T05:00:32.410Z,34.80
2024-05-09T05:03:06.892Z,34.67
2024-05-09T05:05:34.746Z,36.07
2024-05-09T05:08:01.411Z,33.47
2024-05-09T05:10:33.965Z,35.20
2024-05-09T05:13:16.431Z,36.80
2024-05-09T05:15:43.944Z,36.70
2024-05-09T05:18:10.635Z,37.43
2024-05-09T05:20:37.471Z,35.87
2024-05-09T05:23:08.142Z,36.80
2024-05-09T05:25:34.673Z,36.67
2024-05-09T05:28:01.192Z,39.00
2024-05-09T05:30:32.798Z,38.10
2024-05-09T05:33:01.382Z,38.53
2024-05-09T05:35:28.156Z,36.10
2024-05-09T05:37:54.809Z,37.97
2024-05-09T05:40:28.510Z,38.13
2024-05-09T05:43:02.882Z,38.87
2024-05-09T05:45:29.431Z,37.00
2024-05-09T05:47:56.192Z,38.17
2024-05-09T05:50:28.074Z,38.83
2024-05-09T05:53:01.956Z,37.77
2024-05-09T05:55:28.519Z,36.93
2024-05-09T05:57:55.073Z,35.50
2024-05-09T06:00:29.414Z,35.93
2024-05-09T06:03:02.335Z,39.50
2024-05-09T06:05:29.147Z,40.37
2024-05-09T06:07:55.903Z,38.70
2024-05-09T06:10:26.332Z,38.23
2024-05-09T06:13:01.379Z,36.23
2024-05-09T06:15:27.907Z,35.30
2024-05-09T06:17:54.713Z,36.13
2024-05-09T06:20:31.240Z,36.50
2024-05-09T06:23:03.083Z,36.77
2024-05-09T06:25:29.803Z,36.87
2024-05-09T06:27:56.382Z,45.97
2024-05-09T06:30:30.131Z,45.33
2024-05-09T06:33:05.350Z,43.13
2024-05-09T06:35:32.832Z,43.07
2024-05-09T06:37:59.642Z,42.03
2024-05-09T06:40:35.456Z,40.93
2024-05-09T06:45:33.659Z,41.50
2024-05-09T06:48:00.311Z,41.13
2024-05-09T06:50:35.286Z,40.03
2024-05-09T06:53:04.200Z,40.70
2024-05-09T06:55:30.753Z,40.57
2024-05-09T06:57:57.287Z,39.23
2024-05-09T07:00:30.742Z,54.23
2024-05-09T07:03:13.075Z,72.60
2024-05-09T07:05:41.870Z,44.20
2024-05-09T07:08:08.518Z,40.33
2024-05-09T07:10:36.428Z,39.83
2024-05-09T07:13:10.794Z,38.47
2024-05-09T07:15:37.825Z,38.07
2024-05-09T07:18:20.170Z,37.40
2024-05-09T07:20:48.982Z,37.37
2024-05-09T07:23:16.591Z,37.90
2024-05-09T07:25:43.254Z,37.93
2024-05-09T07:28:14.167Z,50.70
2024-05-09T07:30:41.341Z,53.37
2024-05-09T07:33:07.990Z,39.73
2024-05-09T07:35:34.806Z,38.83
2024-05-09T07:38:01.546Z,37.83
2024-05-09T07:40:34.827Z,37.83
2024-05-09T07:43:04.390Z,39.63
2024-05-09T07:45:47.922Z,39.23
2024-05-09T07:53:38.574Z,40.67
2024-05-09T07:56:07.946Z,38.90
2024-05-09T07:58:35.588Z,37.27
2024-05-09T08:01:04.942Z,37.90
2024-05-09T08:03:31.726Z,38.63
2024-05-09T08:05:58.372Z,39.23
2024-05-09T08:08:24.898Z,37.90
2024-05-09T08:10:51.864Z,38.80
2024-05-09T08:13:18.580Z,36.67
2024-05-09T08:15:45.343Z,38.13
2024-05-09T08:18:12.209Z,38.00
2024-05-09T08:20:40.109Z,38.60
2024-05-09T08:23:07.115Z,37.87
2024-05-09T08:25:33.694Z,37.80
2024-05-09T08:28:00.301Z,37.63
2024-05-09T08:30:33.430Z,75.67
2024-05-09T08:33:04.510Z,48.20
2024-05-09T08:35:31.797Z,37.70
2024-05-09T08:37:58.555Z,38.00
2024-05-09T08:40:32.901Z,38.30
2024-05-09T08:43:02.871Z,37.70
2024-05-09T08:45:31.183Z,37.67
2024-05-09T08:47:59.475Z,37.27
2024-05-09T08:50:32.439Z,36.20
2024-05-09T08:53:05.469Z,36.17
2024-05-09T08:55:32.319Z,35.80
2024-05-09T08:58:00.886Z,47.73
2024-05-09T09:00:35.795Z,37.57
2024-05-09T09:03:05.856Z,35.17
2024-05-09T09:05:34.246Z,32.93
2024-05-09T09:08:04.557Z,32.33
2024-05-09T09:10:32.689Z,34.27
2024-05-09T09:13:09.412Z,33.10
2024-05-09T09:15:46.965Z,32.33
2024-05-09T09:18:14.942Z,29.90
2024-05-09T09:20:41.903Z,28.87
2024-05-09T09:23:08.721Z,27.10
2024-05-09T09:25:35.229Z,26.10
2024-05-09T09:28:01.828Z,25.00
2024-05-09T09:30:36.187Z,21.47
2024-05-09T09:33:06.110Z,20.50
2024-05-09T09:35:33.024Z,20.50
2024-05-09T09:38:02.815Z,20.07
2024-05-09T09:40:35.900Z,19.07
2024-05-09T09:43:08.831Z,22.00
2024-05-09T09:45:35.929Z,22.80
2024-05-09T09:48:02.896Z,17.23
2024-05-09T09:50:34.359Z,15.50
2024-05-09T09:53:03.603Z,14.47
2024-05-09T09:55:32.639Z,14.32
2024-05-09T09:57:59.667Z,12.35
2024-05-09T10:00:32.537Z,13.30
2024-05-09T10:03:00.549Z,12.73
2024-05-09T10:05:28.136Z,12.77
2024-05-09T10:07:55.304Z,11.82
2024-05-09T10:10:30.282Z,12.52
2024-05-09T10:13:00.155Z,13.05
2024-05-09T10:15:26.870Z,13.45
2024-05-09T10:17:53.553Z,20.80
2024-05-09T10:20:24.717Z,13.15
2024-05-09T10:22:54.390Z,12.45
2024-05-09T10:25:21.216Z,12.88
2024-05-09T10:27:55.002Z,10.68
2024-05-09T10:30:29.743Z,10.73
2024-05-09T10:33:02.324Z,9.52
2024-05-09T10:35:31.417Z,8.75
2024-05-09T10:38:05.652Z,7.68
2024-05-09T10:40:32.328Z,9.88
2024-05-09T10:43:02.592Z,9.23
2024-05-09T10:45:31.976Z,8.07
2024-05-09T10:47:58.824Z,8.40
2024-05-09T10:50:29.138Z,7.13
2024-05-09T10:53:00.472Z,6.20
2024-05-09T10:55:27.454Z,5.03
2024-05-09T10:57:54.157Z,5.60
2024-05-09T11:00:27.591Z,4.30
2024-05-09T11:03:00.139Z,14.93
2024-05-09T11:05:26.930Z,5.03
2024-05-09T11:07:53.736Z,3.80
2024-05-09T11:10:27.401Z,3.42
2024-05-09T11:12:58.538Z,4.13
2024-05-09T11:15:25.833Z,4.80
2024-05-09T11:17:52.624Z,4.63
2024-05-09T11:20:26.798Z,5.20
2024-05-09T11:22:57.690Z,4.68
2024-05-09T11:25:24.436Z,5.63
2024-05-09T11:27:51.179Z,5.38
2024-05-09T11:30:26.782Z,5.78
2024-05-09T11:32:58.732Z,6.75
2024-05-09T11:35:26.472Z,6.63
2024-05-09T11:37:53.057Z,9.80
2024-05-09T11:40:25.434Z,8.13
2024-05-09T11:42:55.261Z,8.77
2024-05-09T11:45:22.013Z,7.80
2024-05-09T11:47:48.854Z,8.35
2024-05-09T11:50:22.623Z,7.00
2024-05-09T11:52:56.054Z,7.55
2024-05-09T11:55:26.797Z,7.82
2024-05-09T11:57:54.635Z,6.60
2024-05-09T12:00:29.516Z,6.90
2024-05-09T12:03:04.641Z,6.90
2024-05-09T12:05:31.761Z,5.60
2024-05-09T12:07:58.592Z,6.00
2024-05-09T12:10:32.650Z,6.50
2024-05-09T12:13:02.012Z,6.35
2024-05-09T12:15:28.881Z,6.05
2024-05-09T12:17:58.198Z,5.90
2024-05-09T12:20:34.765Z,5.95
2024-05-09T12:23:04.504Z,7.22
2024-05-09T12:25:31.108Z,6.53
2024-05-09T12:27:57.781Z,7.28
2024-05-09T12:30:33.059Z,6.68
2024-05-09T12:33:04.680Z,7.30
2024-05-09T12:35:31.615Z,6.30
2024-05-09T12:37:58.165Z,21.65
2024-05-09T12:40:34.201Z,8.77
2024-05-09T12:43:04.697Z,5.90
2024-05-09T12:45:32.186Z,5.25
2024-05-09T12:47:59.074Z,5.32
2024-05-09T12:50:32.254Z,5.00
2024-05-09T12:53:01.167Z,4.47
2024-05-09T12:55:28.669Z,4.30
2024-05-09T12:57:58.438Z,4.05
2024-05-09T13:00:33.830Z,3.90
2024-05-09T13:03:09.541Z,3.45
2024-05-09T13:05:36.329Z,5.28
2024-05-09T13:08:03.891Z,3.10
2024-05-09T13:10:32.803Z,3.33
2024-05-09T13:13:01.349Z,4.00
2024-05-09T13:15:30.051Z,3.60
2024-05-09T13:18:02.639Z,3.45
2024-05-09T13:20:34.302Z,3.90
2024-05-09T13:23:06.737Z,3.70
2024-05-09T13:25:35.124Z,3.25
2024-05-09T13:28:02.607Z,3.30
2024-05-09T13:30:38.244Z,3.58
2024-05-09T13:33:08.654Z,3.10
2024-05-09T13:35:36.099Z,3.58
2024-05-09T13:38:03.739Z,3.45
2024-05-09T13:40:34.456Z,4.05
2024-05-09T13:43:04.058Z,3.10
2024-05-09T13:45:30.940Z,2.85
2024-05-09T13:47:57.696Z,3.40
2024-05-09T13:50:33.064Z,2.97
2024-05-09T13:53:02.666Z,4.43
2024-05-09T13:55:29.277Z,4.90
2024-05-09T13:57:56.022Z,4.65
2024-05-09T14:00:33.181Z,4.18
2024-05-09T14:03:09.559Z,4.30
2024-05-09T14:05:36.666Z,5.40
2024-05-09T14:08:03.575Z,5.85
2024-05-09T14:10:31.931Z,4.78
2024-05-09T14:12:59.706Z,6.35
2024-05-09T14:15:26.574Z,17.00
2024-05-09T14:17:53.587Z,7.85
2024-05-09T14:20:29.981Z,5.75
2024-05-09T14:22:59.237Z,5.40
2024-05-09T14:25:28.280Z,5.15
2024-05-09T14:27:55.221Z,4.90
2024-05-09T14:30:30.505Z,4.57
2024-05-09T14:33:03.473Z,4.70
2024-05-09T14:35:30.203Z,5.43
2024-05-09T14:37:56.820Z,4.97
2024-05-09T14:40:36.102Z,9.15
2024-05-09T14:43:07.872Z,5.45
2024-05-09T14:45:34.770Z,4.60
2024-05-09T14:48:02.279Z,4.70
2024-05-09T14:50:35.471Z,4.45
2024-05-09T14:53:05.932Z,4.70
2024-05-09T14:55:35.180Z,5.03
2024-05-09T14:58:02.934Z,4.70
2024-05-09T15:00:35.432Z,4.75
2024-05-09T15:03:03.712Z,4.80
2024-05-09T15:05:30.689Z,4.75
2024-05-09T15:07:58.122Z,4.43
2024-05-09T15:10:33.697Z,5.20
2024-05-09T15:13:04.137Z,4.95
2024-05-09T15:15:31.189Z,4.20
2024-05-09T15:17:57.943Z,5.00
2024-05-09T15:20:32.965Z,4.40
2024-05-09T15:23:02.557Z,4.53
2024-05-09T15:25:29.434Z,3.90
2024-05-09T15:27:56.345Z,4.68
2024-05-09T15:32:52.712Z,5.10
2024-05-09T15:35:20.002Z,4.30
2024-05-09T15:37:48.386Z,4.80
2024-05-09T15:40:22.087Z,10.82
2024-05-09T15:42:57.732Z,6.20
2024-05-09T15:45:24.333Z,5.47
2024-05-09T15:47:50.926Z,4.40
2024-05-09T15:50:27.573Z,4.28
2024-05-09T15:52:59.257Z,5.30
2024-05-09T15:55:26.177Z,4.40
2024-05-09T15:57:52.755Z,4.28
2024-05-09T16:00:28.420Z,4.40
2024-05-09T16:03:00.904Z,4.20
2024-05-09T16:05:27.690Z,4.40
2024-05-09T16:07:54.423Z,4.22
2024-05-09T16:10:25.928Z,5.20
2024-05-09T16:12:58.738Z,4.60
2024-05-09T16:15:25.395Z,5.32
2024-05-09T16:17:52.022Z,34.58
2024-05-09T16:20:29.602Z,8.63
2024-05-09T16:23:04.884Z,5.43
2024-05-09T16:25:31.456Z,4.53
2024-05-09T16:27:59.365Z,5.32
2024-05-09T16:30:32.150Z,4.72
2024-05-09T16:33:02.833Z,5.03
2024-05-09T16:35:29.669Z,4.70
2024-05-09T16:37:56.260Z,5.50
2024-05-09T16:40:30.284Z,5.07
2024-05-09T16:43:04.530Z,5.43
2024-05-09T16:45:31.517Z,5.63
2024-05-09T16:47:59.371Z,5.50
2024-05-09T16:50:31.119Z,5.35
2024-05-09T16:52:59.995Z,5.75
2024-05-09T16:55:26.806Z,5.18
2024-05-09T16:57:53.528Z,5.30
2024-05-09T17:00:31.052Z,4.90
2024-05-09T17:03:06.200Z,5.10
2024-05-09T17:05:33.562Z,5.60
2024-05-09T17:08:01.113Z,6.43
2024-05-09T17:10:32.655Z,6.30
2024-05-09T17:13:02.118Z,6.60
2024-05-09T17:15:28.979Z,5.72
2024-05-09T17:17:56.029Z,14.43
2024-05-09T17:20:29.710Z,10.57
2024-05-09T17:23:01.990Z,7.30
2024-05-09T17:25:28.648Z,8.25
2024-05-09T17:27:55.570Z,7.57
2024-05-09T17:30:29.086Z,8.40
2024-05-09T17:33:02.140Z,7.80
2024-05-09T17:35:29.111Z,9.10
2024-05-09T17:37:55.928Z,10.53
2024-05-09T17:40:30.890Z,11.03
2024-05-09T17:43:01.603Z,11.23
2024-05-09T17:45:28.577Z,12.30
2024-05-09T17:47:55.501Z,11.60
2024-05-09T17:50:28.017Z,11.90
2024-05-09T17:53:01.684Z,12.03
2024-05-09T17:55:28.609Z,12.80
2024-05-09T17:57:55.495Z,12.50
2024-05-09T18:00:32.724Z,19.10
2024-05-09T18:03:05.394Z,14.87
2024-05-09T18:05:32.379Z,12.20
2024-05-09T18:07:59.195Z,15.03
2024-05-09T18:10:33.118Z,21.67
2024-05-09T18:13:05.483Z,16.00
2024-05-09T18:15:32.635Z,15.20
2024-05-09T18:17:59.613Z,14.57
2024-05-09T18:20:36.650Z,14.30
2024-05-09T18:23:08.844Z,14.40
2024-05-09T18:25:35.448Z,14.00
2024-05-09T18:28:03.151Z,14.57
2024-05-09T18:30:34.777Z,14.10
2024-05-09T18:33:04.484Z,15.33
2024-05-09T18:35:31.793Z,14.57
2024-05-09T18:37:58.397Z,15.23
2024-05-09T18:40:32.938Z,15.50
2024-05-09T18:43:03.478Z,16.40
2024-05-09T18:45:30.623Z,16.47
2024-05-09T18:47:57.613Z,15.90
2024-05-09T18:50:32.508Z,17.20
2024-05-09T18:53:05.724Z,30.10
2024-05-09T18:55:32.426Z,39.80
2024-05-09T18:57:59.110Z,18.07
2024-05-09T19:00:33.959Z,17.90
2024-05-09T19:03:05.972Z,16.97
2024-05-09T19:05:35.275Z,17.97
2024-05-09T19:08:02.709Z,17.60
2024-05-09T19:10:34.154Z,17.73
2024-05-09T19:13:05.428Z,17.57
2024-05-09T19:15:35.642Z,18.67
2024-05-09T19:18:02.524Z,19.17
2024-05-09T19:20:34.161Z,19.07
2024-05-09T19:23:02.393Z,19.13
2024-05-09T19:25:29.033Z,19.03
2024-05-09T19:27:55.727Z,19.20
2024-05-09T19:30:30.178Z,20.30
2024-05-09T19:33:04.933Z,20.17
2024-05-09T19:35:32.271Z,20.73
2024-05-09T19:37:59.010Z,20.93
2024-05-09T19:40:31.257Z,21.63
2024-05-09T19:43:00.264Z,21.00
2024-05-09T19:45:26.935Z,22.00
2024-05-09T19:47:53.743Z,22.90
2024-05-09T19:50:27.054Z,21.50
2024-05-09T19:53:02.811Z,22.27
2024-05-09T19:55:29.464Z,21.40
2024-05-09T19:57:56.093Z,22.70
2024-05-09T20:00:29.427Z,22.93
2024-05-09T20:03:02.132Z,22.90
2024-05-09T20:05:30.984Z,23.73
2024-05-09T20:07:57.971Z,23.73
2024-05-09T20:10:31.383Z,23.27
2024-05-09T20:13:00.136Z,23.40
2024-05-09T20:15:26.888Z,28.27
2024-05-09T20:17:53.821Z,27.20
2024-05-09T20:20:28.686Z,24.77
2024-05-09T20:23:03.144Z,23.40
2024-05-09T20:25:29.890Z,24.10
2024-05-09T20:27:56.476Z,24.20
2024-05-09T20:30:30.476Z,23.57
2024-05-09T20:32:59.730Z,25.03
2024-05-09T20:35:26.636Z,25.00
2024-05-09T20:37:53.298Z,24.73
2024-05-09T20:40:28.256Z,24.50
2024-05-09T20:42:59.190Z,24.33
2024-05-09T20:45:25.873Z,25.43
2024-05-09T20:47:52.610Z,26.33
2024-05-09T20:50:28.146Z,26.47
2024-05-09T20:53:02.600Z,26.33
2024-05-09T20:55:29.816Z,26.40
2024-05-09T20:57:56.851Z,26.17
2024-05-09T21:00:30.254Z,26.70
2024-05-09T21:03:05.855Z,25.70
2024-05-09T21:05:33.020Z,72.23
2024-05-09T21:07:59.811Z,32.90
2024-05-09T21:10:27.264Z,28.87
2024-05-09T21:12:56.447Z,27.03
2024-05-09T21:15:23.127Z,28.13
2024-05-09T21:17:49.720Z,28.13
2024-05-09T21:20:20.635Z,27.83
2024-05-09T21:22:50.874Z,27.90
2024-05-09T21:25:17.469Z,28.20
2024-05-09T21:27:44.156Z,28.67
2024-05-09T21:30:18.412Z,29.13
2024-05-09T21:32:50.223Z,29.20
2024-05-09T21:35:19.957Z,28.63
2024-05-09T21:37:46.997Z,28.80
2024-05-09T21:40:17.188Z,29.37
2024-05-09T21:42:50.928Z,30.53
2024-05-09T21:45:17.537Z,30.07
2024-05-09T21:47:44.265Z,29.70
2024-05-09T21:50:22.039Z,29.63
2024-05-09T21:52:50.271Z,29.43
2024-05-09T21:55:16.894Z,29.67
2024-05-09T21:57:43.461Z,27.90
2024-05-09T22:00:25.161Z,29.17
2024-05-09T22:02:59.294Z,29.53
2024-05-09T22:05:26.055Z,30.73
2024-05-09T22:07:52.591Z,31.13
2024-05-09T22:10:25.749Z,30.97
2024-05-09T22:12:56.910Z,30.10
2024-05-09T22:15:23.438Z,29.50
2024-05-09T22:17:50.046Z,29.10
2024-05-09T22:20:22.351Z,30.93
2024-05-09T22:22:55.635Z,31.40
2024-05-09T22:25:22.377Z,31.77
2024-05-09T22:27:49.003Z,32.20
2024-05-09T22:30:23.676Z,31.27
2024-05-09T22:32:54.219Z,32.40
2024-05-09T22:35:20.756Z,32.17
2024-05-09T22:37:47.413Z,31.50
2024-05-09T22:40:20.747Z,33.57
2024-05-09T22:42:55.001Z,33.50
2024-05-09T22:45:21.535Z,32.57
2024-05-09T22:47:48.243Z,32.67
2024-05-09T22:50:22.362Z,33.13
2024-05-09T22:52:52.985Z,33.90
2024-05-09T22:55:19.588Z,33.33
2024-05-09T22:57:46.223Z,33.73
2024-05-09T23:00:15.969Z,33.60
2024-05-09T23:02:42.911Z,34.67
2024-05-09T23:05:09.751Z,34.13
2024-05-09T23:07:36.465Z,35.83
2024-05-09T23:10:04.351Z,36.97
2024-05-09T23:12:32.034Z,36.63
2024-05-09T23:14:58.603Z,35.37
2024-05-09T23:17:25.226Z,34.60
2024-05-09T23:19:51.884Z,34.27
2024-05-09T23:22:18.540Z,35.03
2024-05-09T23:24:45.146Z,34.27
2024-05-09T23:27:11.740Z,34.17
2024-05-09T23:29:38.237Z,34.53
2024-05-09T23:32:05.034Z,34.27
2024-05-09T23:34:32.330Z,33.87
2024-05-09T23:36:58.910Z,35.20
2024-05-09T23:39:25.527Z,34.60
2024-05-09T23:41:52.122Z,35.30
2024-05-09T23:44:19.301Z,36.17
2024-05-09T23:46:45.953Z,35.80
2024-05-09T23:49:12.775Z,34.87
2024-05-09T23:51:39.421Z,34.47
2024-05-09T23:54:08.317Z,34.70
2024-05-09T23:56:34.849Z,33.70
2024-05-09T23:59:01.419Z,34.47
